sensor_id;sensor_type;location;lat;lon;timestamp;P1;durP1;ratioP1;P2;durP2;ratioP2
11042;SDS011;5574;48.786;10.120;2024-03-02T00:00:38;13.07;;;11.30;;
11042;SDS011;5574;48.786;10.120;2024-03-02T00:03:05;13.07;;;11.13;;
11042;SDS011;5574;48.786;10.120;2024-03-02T00:05:34;11.43;;;10.03;;
11042;SDS011;5574;48.786;10.120;2024-03-02T00:08:01;11.93;;;10.73;;
11042;SDS011;5574;48.786;10.120;2024-03-02T00:10:31;12.20;;;10.37;;
11042;SDS011;5574;48.786;10.120;2024-03-02T00:13:04;13.10;;;11.20;;
11042;SDS011;5574;48.786;10.120;2024-03-02T00:15:45;12.60;;;11.30;;
11042;SDS011;5574;48.786;10.120;2024-03-02T00:18:13;12.77;;;11.27;;
11042;SDS011;5574;48.786;10.120;2024-03-02T00:20:42;12.87;;;11.50;;
11042;SDS011;5574;48.786;10.120;2024-03-02T00:23:09;13.17;;;11.30;;
11042;SDS011;5574;48.786;10.120;2024-03-02T00:25:40;14.53;;;11.20;;
11042;SDS011;5574;48.786;10.120;2024-03-02T00:28:11;12.87;;;10.80;;
11042;SDS011;5574;48.786;10.120;2024-03-02T00:30:51;12.30;;;11.03;;
11042;SDS011;5574;48.786;10.120;2024-03-02T00:33:21;11.47;;;10.27;;
11042;SDS011;5574;48.786;10.120;2024-03-02T00:35:48;11.73;;;10.53;;
11042;SDS011;5574;48.786;10.120;2024-03-02T00:38:15;13.27;;;11.07;;
11042;SDS011;5574;48.786;10.120;2024-03-02T00:40:42;12.03;;;10.73;;
11042;SDS011;5574;48.786;10.120;2024-03-02T00:43:11;12.70;;;10.83;;
11042;SDS011;5574;48.786;10.120;2024-03-02T00:46:04;13.53;;;11.43;;
11042;SDS011;5574;48.786;10.120;2024-03-02T00:48:32;13.60;;;11.53;;
11042;SDS011;5574;48.786;10.120;2024-03-02T00:51:00;14.73;;;11.90;;
11042;SDS011;5574;48.786;10.120;2024-03-02T00:53:28;13.47;;;11.47;;
11042;SDS011;5574;48.786;10.120;2024-03-02T00:55:56;13.27;;;10.77;;
11042;SDS011;5574;48.786;10.120;2024-03-02T00:58:23;14.03;;;11.57;;
11042;SDS011;5574;48.786;10.120;2024-03-02T01:00:50;14.33;;;11.20;;
11042;SDS011;5574;48.786;10.120;2024-03-02T01:03:18;14.77;;;11.67;;
11042;SDS011;5574;48.786;10.120;2024-03-02T01:05:45;15.43;;;12.53;;
11042;SDS011;5574;48.786;10.120;2024-03-02T01:08:11;14.60;;;11.57;;
11042;SDS011;5574;48.786;10.120;2024-03-02T01:10:38;14.67;;;11.77;;
11042;SDS011;5574;48.786;10.120;2024-03-02T01:13:05;14.23;;;11.77;;
11042;SDS011;5574;48.786;10.120;2024-03-02T01:15:31;13.53;;;10.90;;
11042;SDS011;5574;48.786;10.120;2024-03-02T01:17:59;13.40;;;11.80;;
11042;SDS011;5574;48.786;10.120;2024-03-02T01:20:27;13.37;;;11.40;;
11042;SDS011;5574;48.786;10.120;2024-03-02T01:22:54;12.00;;;10.67;;
11042;SDS011;5574;48.786;10.120;2024-03-02T01:25:21;13.40;;;11.13;;
11042;SDS011;5574;48.786;10.120;2024-03-02T01:27:47;12.63;;;11.17;;
11042;SDS011;5574;48.786;10.120;2024-03-02T01:30:14;13.10;;;10.83;;
11042;SDS011;5574;48.786;10.120;2024-03-02T01:32:41;12.83;;;11.00;;
11042;SDS011;5574;48.786;10.120;2024-03-02T01:35:08;13.47;;;11.53;;
11042;SDS011;5574;48.786;10.120;2024-03-02T01:37:36;14.27;;;12.03;;
11042;SDS011;5574;48.786;10.120;2024-03-02T01:40:03;13.87;;;11.97;;
11042;SDS011;5574;48.786;10.120;2024-03-02T01:42:34;14.63;;;12.40;;
11042;SDS011;5574;48.786;10.120;2024-03-02T01:45:01;15.07;;;12.33;;
11042;SDS011;5574;48.786;10.120;2024-03-02T01:47:28;14.50;;;11.90;;
11042;SDS011;5574;48.786;10.120;2024-03-02T01:49:55;14.63;;;12.10;;
11042;SDS011;5574;48.786;10.120;2024-03-02T01:52:22;15.13;;;12.30;;
11042;SDS011;5574;48.786;10.120;2024-03-02T01:54:50;15.43;;;13.10;;
11042;SDS011;5574;48.786;10.120;2024-03-02T01:57:16;15.57;;;13.07;;
11042;SDS011;5574;48.786;10.120;2024-03-02T01:59:43;15.33;;;12.40;;
11042;SDS011;5574;48.786;10.120;2024-03-02T02:02:12;15.03;;;12.50;;
11042;SDS011;5574;48.786;10.120;2024-03-02T02:04:39;17.30;;;14.10;;
11042;SDS011;5574;48.786;10.120;2024-03-02T02:07:05;15.00;;;12.83;;
11042;SDS011;5574;48.786;10.120;2024-03-02T02:09:32;14.30;;;12.67;;
11042;SDS011;5574;48.786;10.120;2024-03-02T02:12:00;15.67;;;12.37;;
11042;SDS011;5574;48.786;10.120;2024-03-02T02:14:28;14.27;;;11.60;;
11042;SDS011;5574;48.786;10.120;2024-03-02T02:16:55;13.27;;;11.37;;
11042;SDS011;5574;48.786;10.120;2024-03-02T02:19:22;12.80;;;10.93;;
11042;SDS011;5574;48.786;10.120;2024-03-02T02:21:50;13.13;;;11.07;;
11042;SDS011;5574;48.786;10.120;2024-03-02T02:24:16;13.43;;;10.97;;
11042;SDS011;5574;48.786;10.120;2024-03-02T02:26:43;12.23;;;10.40;;
11042;SDS011;5574;48.786;10.120;2024-03-02T02:29:10;12.93;;;10.47;;
11042;SDS011;5574;48.786;10.120;2024-03-02T02:31:37;15.60;;;11.50;;
11042;SDS011;5574;48.786;10.120;2024-03-02T02:34:04;14.77;;;11.97;;
11042;SDS011;5574;48.786;10.120;2024-03-02T02:36:30;14.30;;;11.37;;
11042;SDS011;5574;48.786;10.120;2024-03-02T02:38:58;14.50;;;11.80;;
11042;SDS011;5574;48.786;10.120;2024-03-02T02:41:29;14.47;;;11.40;;
11042;SDS011;5574;48.786;10.120;2024-03-02T02:43:56;15.47;;;11.87;;
11042;SDS011;5574;48.786;10.120;2024-03-02T02:46:22;13.50;;;11.83;;
11042;SDS011;5574;48.786;10.120;2024-03-02T02:48:49;14.03;;;11.87;;
11042;SDS011;5574;48.786;10.120;2024-03-02T02:51:18;15.60;;;12.10;;
11042;SDS011;5574;48.786;10.120;2024-03-02T02:53:44;16.87;;;12.60;;
11042;SDS011;5574;48.786;10.120;2024-03-02T02:56:12;14.87;;;12.80;;
11042;SDS011;5574;48.786;10.120;2024-03-02T02:58:39;13.83;;;11.53;;
11042;SDS011;5574;48.786;10.120;2024-03-02T03:01:07;15.00;;;12.63;;
11042;SDS011;5574;48.786;10.120;2024-03-02T03:03:33;13.93;;;11.80;;
11042;SDS011;5574;48.786;10.120;2024-03-02T03:06:00;15.43;;;11.77;;
11042;SDS011;5574;48.786;10.120;2024-03-02T03:08:27;14.57;;;12.23;;
11042;SDS011;5574;48.786;10.120;2024-03-02T03:10:54;13.83;;;11.47;;
11042;SDS011;5574;48.786;10.120;2024-03-02T03:13:22;15.93;;;12.53;;
11042;SDS011;5574;48.786;10.120;2024-03-02T03:15:48;14.37;;;11.73;;
11042;SDS011;5574;48.786;10.120;2024-03-02T03:18:15;17.07;;;12.93;;
11042;SDS011;5574;48.786;10.120;2024-03-02T03:20:42;14.83;;;12.20;;
11042;SDS011;5574;48.786;10.120;2024-03-02T03:23:08;15.13;;;11.60;;
11042;SDS011;5574;48.786;10.120;2024-03-02T03:25:40;14.43;;;11.67;;
11042;SDS011;5574;48.786;10.120;2024-03-02T03:28:06;13.07;;;10.90;;
11042;SDS011;5574;48.786;10.120;2024-03-02T03:30:36;13.60;;;11.63;;
11042;SDS011;5574;48.786;10.120;2024-03-02T03:33:02;15.67;;;11.63;;
11042;SDS011;5574;48.786;10.120;2024-03-02T03:35:30;13.73;;;11.03;;
11042;SDS011;5574;48.786;10.120;2024-03-02T03:37:57;12.50;;;10.80;;
11042;SDS011;5574;48.786;10.120;2024-03-02T03:40:24;14.20;;;11.90;;
11042;SDS011;5574;48.786;10.120;2024-03-02T03:42:51;14.23;;;11.57;;
11042;SDS011;5574;48.786;10.120;2024-03-02T03:45:18;15.43;;;11.97;;
11042;SDS011;5574;48.786;10.120;2024-03-02T03:47:46;15.87;;;12.43;;
11042;SDS011;5574;48.786;10.120;2024-03-02T03:50:12;14.73;;;11.97;;
11042;SDS011;5574;48.786;10.120;2024-03-02T03:52:39;13.67;;;11.20;;
11042;SDS011;5574;48.786;10.120;2024-03-02T03:55:06;15.50;;;11.27;;
11042;SDS011;5574;48.786;10.120;2024-03-02T03:57:33;13.40;;;11.17;;
11042;SDS011;5574;48.786;10.120;2024-03-02T04:00:00;13.70;;;11.30;;
11042;SDS011;5574;48.786;10.120;2024-03-02T04:02:26;14.83;;;11.67;;
11042;SDS011;5574;48.786;10.120;2024-03-02T04:04:54;13.97;;;11.10;;
11042;SDS011;5574;48.786;10.120;2024-03-02T04:07:21;13.83;;;11.73;;
11042;SDS011;5574;48.786;10.120;2024-03-02T04:09:48;13.33;;;10.97;;
11042;SDS011;5574;48.786;10.120;2024-03-02T04:12:14;14.20;;;11.57;;
11042;SDS011;5574;48.786;10.120;2024-03-02T04:14:41;13.47;;;11.23;;
11042;SDS011;5574;48.786;10.120;2024-03-02T04:17:08;13.10;;;10.80;;
11042;SDS011;5574;48.786;10.120;2024-03-02T04:19:35;13.97;;;10.63;;
11042;SDS011;5574;48.786;10.120;2024-03-02T04:22:03;14.93;;;11.80;;
11042;SDS011;5574;48.786;10.120;2024-03-02T04:24:30;13.63;;;11.10;;
11042;SDS011;5574;48.786;10.120;2024-03-02T04:26:56;15.43;;;12.33;;
11042;SDS011;5574;48.786;10.120;2024-03-02T04:29:23;13.17;;;10.60;;
11042;SDS011;5574;48.786;10.120;2024-03-02T04:31:50;15.80;;;11.97;;
11042;SDS011;5574;48.786;10.120;2024-03-02T04:34:16;16.17;;;12.87;;
11042;SDS011;5574;48.786;10.120;2024-03-02T04:36:43;16.17;;;12.70;;
11042;SDS011;5574;48.786;10.120;2024-03-02T04:39:11;16.13;;;12.57;;
11042;SDS011;5574;48.786;10.120;2024-03-02T04:41:38;14.50;;;11.67;;
11042;SDS011;5574;48.786;10.120;2024-03-02T04:44:04;13.93;;;12.03;;
11042;SDS011;5574;48.786;10.120;2024-03-02T04:46:33;13.37;;;11.53;;
11042;SDS011;5574;48.786;10.120;2024-03-02T04:48:59;13.77;;;11.20;;
11042;SDS011;5574;48.786;10.120;2024-03-02T04:51:26;14.20;;;11.80;;
11042;SDS011;5574;48.786;10.120;2024-03-02T04:53:53;14.57;;;11.70;;
11042;SDS011;5574;48.786;10.120;2024-03-02T04:56:21;13.67;;;11.30;;
11042;SDS011;5574;48.786;10.120;2024-03-02T04:59:08;14.47;;;11.27;;
11042;SDS011;5574;48.786;10.120;2024-03-02T05:01:35;14.40;;;12.30;;
11042;SDS011;5574;48.786;10.120;2024-03-02T05:04:02;13.40;;;11.53;;
11042;SDS011;5574;48.786;10.120;2024-03-02T05:06:29;13.10;;;11.07;;
11042;SDS011;5574;48.786;10.120;2024-03-02T05:08:56;12.93;;;10.73;;
11042;SDS011;5574;48.786;10.120;2024-03-02T05:11:23;14.60;;;11.47;;
11042;SDS011;5574;48.786;10.120;2024-03-02T05:14:24;13.50;;;11.67;;
11042;SDS011;5574;48.786;10.120;2024-03-02T05:16:49;13.90;;;11.80;;
11042;SDS011;5574;48.786;10.120;2024-03-02T05:19:16;13.50;;;9.93;;
11042;SDS011;5574;48.786;10.120;2024-03-02T05:21:43;13.30;;;10.93;;
11042;SDS011;5574;48.786;10.120;2024-03-02T05:24:10;15.60;;;11.60;;
11042;SDS011;5574;48.786;10.120;2024-03-02T05:26:38;13.10;;;10.87;;
11042;SDS011;5574;48.786;10.120;2024-03-02T05:29:04;13.20;;;10.97;;
11042;SDS011;5574;48.786;10.120;2024-03-02T05:31:31;13.93;;;11.13;;
11042;SDS011;5574;48.786;10.120;2024-03-02T05:33:58;13.00;;;10.73;;
11042;SDS011;5574;48.786;10.120;2024-03-02T05:36:24;11.20;;;10.00;;
11042;SDS011;5574;48.786;10.120;2024-03-02T05:38:51;12.50;;;10.93;;
11042;SDS011;5574;48.786;10.120;2024-03-02T05:41:18;13.97;;;11.80;;
11042;SDS011;5574;48.786;10.120;2024-03-02T05:43:46;11.73;;;10.07;;
11042;SDS011;5574;48.786;10.120;2024-03-02T05:46:12;12.60;;;10.00;;
11042;SDS011;5574;48.786;10.120;2024-03-02T05:48:39;14.33;;;11.00;;
11042;SDS011;5574;48.786;10.120;2024-03-02T05:51:06;14.50;;;11.40;;
11042;SDS011;5574;48.786;10.120;2024-03-02T05:53:32;14.33;;;11.13;;
11042;SDS011;5574;48.786;10.120;2024-03-02T05:55:59;13.43;;;10.70;;
11042;SDS011;5574;48.786;10.120;2024-03-02T05:58:26;11.77;;;10.43;;
11042;SDS011;5574;48.786;10.120;2024-03-02T06:01:04;12.27;;;10.20;;
11042;SDS011;5574;48.786;10.120;2024-03-02T06:03:31;11.40;;;9.87;;
11042;SDS011;5574;48.786;10.120;2024-03-02T06:05:57;11.67;;;9.93;;
11042;SDS011;5574;48.786;10.120;2024-03-02T06:08:24;11.47;;;9.87;;
11042;SDS011;5574;48.786;10.120;2024-03-02T06:10:51;12.27;;;10.17;;
11042;SDS011;5574;48.786;10.120;2024-03-02T06:13:18;12.03;;;10.33;;
11042;SDS011;5574;48.786;10.120;2024-03-02T06:15:45;12.73;;;10.07;;
11042;SDS011;5574;48.786;10.120;2024-03-02T06:18:13;13.07;;;10.37;;
11042;SDS011;5574;48.786;10.120;2024-03-02T06:20:40;12.37;;;10.20;;
11042;SDS011;5574;48.786;10.120;2024-03-02T06:23:06;11.60;;;9.90;;
11042;SDS011;5574;48.786;10.120;2024-03-02T06:25:33;12.50;;;10.27;;
11042;SDS011;5574;48.786;10.120;2024-03-02T06:28:00;12.57;;;10.70;;
11042;SDS011;5574;48.786;10.120;2024-03-02T06:30:26;12.80;;;10.47;;
11042;SDS011;5574;48.786;10.120;2024-03-02T06:32:53;11.43;;;9.90;;
11042;SDS011;5574;48.786;10.120;2024-03-02T06:35:21;12.07;;;10.03;;
11042;SDS011;5574;48.786;10.120;2024-03-02T06:37:47;11.80;;;9.83;;
11042;SDS011;5574;48.786;10.120;2024-03-02T06:40:15;12.67;;;10.37;;
11042;SDS011;5574;48.786;10.120;2024-03-02T06:42:41;13.07;;;11.13;;
11042;SDS011;5574;48.786;10.120;2024-03-02T06:45:08;12.47;;;11.17;;
11042;SDS011;5574;48.786;10.120;2024-03-02T06:47:35;12.13;;;9.83;;
11042;SDS011;5574;48.786;10.120;2024-03-02T06:50:01;12.73;;;10.57;;
11042;SDS011;5574;48.786;10.120;2024-03-02T06:52:29;12.40;;;10.13;;
11042;SDS011;5574;48.786;10.120;2024-03-02T06:54:56;11.67;;;9.50;;
11042;SDS011;5574;48.786;10.120;2024-03-02T06:57:23;10.90;;;9.23;;
11042;SDS011;5574;48.786;10.120;2024-03-02T06:59:50;12.27;;;10.70;;
11042;SDS011;5574;48.786;10.120;2024-03-02T07:02:19;12.63;;;10.40;;
11042;SDS011;5574;48.786;10.120;2024-03-02T07:04:46;13.03;;;11.10;;
11042;SDS011;5574;48.786;10.120;2024-03-02T07:07:12;11.17;;;9.77;;
11042;SDS011;5574;48.786;10.120;2024-03-02T07:09:40;12.23;;;9.83;;
11042;SDS011;5574;48.786;10.120;2024-03-02T07:12:07;12.60;;;10.80;;
11042;SDS011;5574;48.786;10.120;2024-03-02T07:14:34;12.73;;;10.53;;
11042;SDS011;5574;48.786;10.120;2024-03-02T07:17:18;12.00;;;10.47;;
11042;SDS011;5574;48.786;10.120;2024-03-02T07:19:45;13.93;;;11.53;;
11042;SDS011;5574;48.786;10.120;2024-03-02T07:22:12;13.33;;;11.10;;
11042;SDS011;5574;48.786;10.120;2024-03-02T07:24:40;14.23;;;11.47;;
11042;SDS011;5574;48.786;10.120;2024-03-02T07:27:08;13.30;;;11.33;;
11042;SDS011;5574;48.786;10.120;2024-03-02T07:29:35;13.57;;;11.70;;
11042;SDS011;5574;48.786;10.120;2024-03-02T07:32:02;12.50;;;11.20;;
11042;SDS011;5574;48.786;10.120;2024-03-02T07:34:29;12.27;;;11.00;;
11042;SDS011;5574;48.786;10.120;2024-03-02T07:36:56;14.10;;;12.13;;
11042;SDS011;5574;48.786;10.120;2024-03-02T07:39:23;14.90;;;11.77;;
11042;SDS011;5574;48.786;10.120;2024-03-02T07:41:51;13.17;;;11.73;;
11042;SDS011;5574;48.786;10.120;2024-03-02T07:44:18;14.13;;;12.20;;
11042;SDS011;5574;48.786;10.120;2024-03-02T07:46:45;11.80;;;10.17;;
11042;SDS011;5574;48.786;10.120;2024-03-02T07:49:14;13.47;;;12.03;;
11042;SDS011;5574;48.786;10.120;2024-03-02T07:51:41;11.77;;;10.57;;
11042;SDS011;5574;48.786;10.120;2024-03-02T07:54:08;13.70;;;11.57;;
11042;SDS011;5574;48.786;10.120;2024-03-02T07:56:35;12.30;;;11.00;;
11042;SDS011;5574;48.786;10.120;2024-03-02T07:59:03;12.50;;;10.63;;
11042;SDS011;5574;48.786;10.120;2024-03-02T08:01:31;11.37;;;9.63;;
11042;SDS011;5574;48.786;10.120;2024-03-02T08:03:58;10.67;;;9.00;;
11042;SDS011;5574;48.786;10.120;2024-03-02T08:06:26;10.80;;;9.70;;
11042;SDS011;5574;48.786;10.120;2024-03-02T08:08:53;12.50;;;11.13;;
11042;SDS011;5574;48.786;10.120;2024-03-02T08:11:20;10.67;;;9.57;;
11042;SDS011;5574;48.786;10.120;2024-03-02T08:13:47;9.90;;;8.60;;
11042;SDS011;5574;48.786;10.120;2024-03-02T08:16:16;11.00;;;9.90;;
11042;SDS011;5574;48.786;10.120;2024-03-02T08:18:44;10.70;;;9.60;;
11042;SDS011;5574;48.786;10.120;2024-03-02T08:21:11;10.80;;;9.70;;
11042;SDS011;5574;48.786;10.120;2024-03-02T08:23:38;10.10;;;9.00;;
11042;SDS011;5574;48.786;10.120;2024-03-02T08:26:07;10.00;;;8.97;;
11042;SDS011;5574;48.786;10.120;2024-03-02T08:28:33;10.63;;;9.57;;
11042;SDS011;5574;48.786;10.120;2024-03-02T08:31:02;10.53;;;9.10;;
11042;SDS011;5574;48.786;10.120;2024-03-02T08:33:30;9.87;;;8.87;;
11042;SDS011;5574;48.786;10.120;2024-03-02T08:35:57;10.43;;;8.90;;
11042;SDS011;5574;48.786;10.120;2024-03-02T08:38:23;9.53;;;8.53;;
11042;SDS011;5574;48.786;10.120;2024-03-02T08:40:50;10.47;;;9.47;;
11042;SDS011;5574;48.786;10.120;2024-03-02T08:43:17;10.43;;;9.37;;
11042;SDS011;5574;48.786;10.120;2024-03-02T08:45:43;10.73;;;9.63;;
11042;SDS011;5574;48.786;10.120;2024-03-02T08:48:10;10.83;;;9.73;;
11042;SDS011;5574;48.786;10.120;2024-03-02T08:50:38;11.27;;;10.17;;
11042;SDS011;5574;48.786;10.120;2024-03-02T08:53:05;10.47;;;9.30;;
11042;SDS011;5574;48.786;10.120;2024-03-02T08:55:32;11.67;;;9.90;;
11042;SDS011;5574;48.786;10.120;2024-03-02T08:57:59;10.53;;;9.43;;
11042;SDS011;5574;48.786;10.120;2024-03-02T09:00:26;10.57;;;8.83;;
11042;SDS011;5574;48.786;10.120;2024-03-02T09:02:53;10.67;;;9.60;;
11042;SDS011;5574;48.786;10.120;2024-03-02T09:05:20;10.40;;;9.30;;
11042;SDS011;5574;48.786;10.120;2024-03-02T09:07:48;10.27;;;9.27;;
11042;SDS011;5574;48.786;10.120;2024-03-02T09:10:15;10.80;;;9.70;;
11042;SDS011;5574;48.786;10.120;2024-03-02T09:12:42;9.53;;;8.53;;
11042;SDS011;5574;48.786;10.120;2024-03-02T09:15:09;11.27;;;9.20;;
11042;SDS011;5574;48.786;10.120;2024-03-02T09:17:36;10.53;;;9.53;;
11042;SDS011;5574;48.786;10.120;2024-03-02T09:20:03;10.00;;;8.97;;
11042;SDS011;5574;48.786;10.120;2024-03-02T09:22:30;10.97;;;9.87;;
11042;SDS011;5574;48.786;10.120;2024-03-02T09:24:58;11.73;;;10.10;;
11042;SDS011;5574;48.786;10.120;2024-03-02T09:27:25;10.23;;;9.13;;
11042;SDS011;5574;48.786;10.120;2024-03-02T09:29:51;10.07;;;8.97;;
11042;SDS011;5574;48.786;10.120;2024-03-02T09:32:18;9.93;;;8.70;;
11042;SDS011;5574;48.786;10.120;2024-03-02T09:34:45;8.83;;;7.97;;
11042;SDS011;5574;48.786;10.120;2024-03-02T09:37:13;8.50;;;7.63;;
11042;SDS011;5574;48.786;10.120;2024-03-02T09:39:39;8.73;;;7.87;;
11042;SDS011;5574;48.786;10.120;2024-03-02T09:42:10;9.37;;;8.47;;
11042;SDS011;5574;48.786;10.120;2024-03-02T09:44:38;7.53;;;6.83;;
11042;SDS011;5574;48.786;10.120;2024-03-02T09:47:06;8.20;;;7.40;;
11042;SDS011;5574;48.786;10.120;2024-03-02T09:49:34;9.13;;;8.13;;
11042;SDS011;5574;48.786;10.120;2024-03-02T09:52:01;8.90;;;7.90;;
11042;SDS011;5574;48.786;10.120;2024-03-02T09:54:30;8.70;;;7.80;;
11042;SDS011;5574;48.786;10.120;2024-03-02T09:56:57;8.37;;;7.57;;
11042;SDS011;5574;48.786;10.120;2024-03-02T09:59:25;7.03;;;6.37;;
11042;SDS011;5574;48.786;10.120;2024-03-02T10:01:56;8.63;;;7.70;;
11042;SDS011;5574;48.786;10.120;2024-03-02T10:04:25;8.20;;;7.40;;
11042;SDS011;5574;48.786;10.120;2024-03-02T10:06:54;9.13;;;7.40;;
11042;SDS011;5574;48.786;10.120;2024-03-02T10:09:37;8.17;;;6.70;;
11042;SDS011;5574;48.786;10.120;2024-03-02T10:12:04;7.40;;;6.67;;
11042;SDS011;5574;48.786;10.120;2024-03-02T10:14:33;7.17;;;6.23;;
11042;SDS011;5574;48.786;10.120;2024-03-02T10:17:03;7.00;;;5.43;;
11042;SDS011;5574;48.786;10.120;2024-03-02T10:19:31;8.37;;;6.60;;
11042;SDS011;5574;48.786;10.120;2024-03-02T10:22:00;9.00;;;6.17;;
11042;SDS011;5574;48.786;10.120;2024-03-02T10:24:28;6.27;;;5.67;;
11042;SDS011;5574;48.786;10.120;2024-03-02T10:27:07;7.57;;;5.33;;
11042;SDS011;5574;48.786;10.120;2024-03-02T10:29:40;5.93;;;5.33;;
11042;SDS011;5574;48.786;10.120;2024-03-02T10:32:08;6.83;;;5.83;;
11042;SDS011;5574;48.786;10.120;2024-03-02T10:34:36;7.30;;;5.80;;
11042;SDS011;5574;48.786;10.120;2024-03-02T10:37:03;5.90;;;5.30;;
11042;SDS011;5574;48.786;10.120;2024-03-02T10:39:31;10.60;;;5.63;;
11042;SDS011;5574;48.786;10.120;2024-03-02T10:42:00;9.30;;;6.27;;
11042;SDS011;5574;48.786;10.120;2024-03-02T10:44:28;5.30;;;4.53;;
11042;SDS011;5574;48.786;10.120;2024-03-02T10:46:58;5.53;;;4.83;;
11042;SDS011;5574;48.786;10.120;2024-03-02T10:49:27;5.20;;;4.23;;
11042;SDS011;5574;48.786;10.120;2024-03-02T10:51:55;5.13;;;4.63;;
11042;SDS011;5574;48.786;10.120;2024-03-02T10:54:22;5.10;;;4.30;;
11042;SDS011;5574;48.786;10.120;2024-03-02T10:56:51;4.77;;;4.27;;
11042;SDS011;5574;48.786;10.120;2024-03-02T10:59:22;5.03;;;4.33;;
11042;SDS011;5574;48.786;10.120;2024-03-02T11:01:53;4.17;;;3.77;;
11042;SDS011;5574;48.786;10.120;2024-03-02T11:04:25;3.90;;;3.60;;
11042;SDS011;5574;48.786;10.120;2024-03-02T11:06:54;4.63;;;3.47;;
11042;SDS011;5574;48.786;10.120;2024-03-02T11:09:25;5.07;;;2.80;;
11042;SDS011;5574;48.786;10.120;2024-03-02T11:11:54;2.67;;;2.47;;
11042;SDS011;5574;48.786;10.120;2024-03-02T11:14:27;4.57;;;2.30;;
11042;SDS011;5574;48.786;10.120;2024-03-02T11:16:56;3.93;;;2.53;;
11042;SDS011;5574;48.786;10.120;2024-03-02T11:19:25;3.27;;;2.30;;
11042;SDS011;5574;48.786;10.120;2024-03-02T11:21:53;4.07;;;2.70;;
11042;SDS011;5574;48.786;10.120;2024-03-02T11:24:30;2.77;;;2.20;;
11042;SDS011;5574;48.786;10.120;2024-03-02T11:27:00;3.70;;;2.43;;
11042;SDS011;5574;48.786;10.120;2024-03-02T11:29:43;3.90;;;2.47;;
11042;SDS011;5574;48.786;10.120;2024-03-02T11:32:14;2.73;;;2.30;;
11042;SDS011;5574;48.786;10.120;2024-03-02T11:34:44;2.50;;;2.30;;
11042;SDS011;5574;48.786;10.120;2024-03-02T11:37:12;2.80;;;2.60;;
11042;SDS011;5574;48.786;10.120;2024-03-02T11:39:40;3.00;;;2.80;;
11042;SDS011;5574;48.786;10.120;2024-03-02T11:42:08;2.83;;;2.63;;
11042;SDS011;5574;48.786;10.120;2024-03-02T11:44:35;2.97;;;2.77;;
11042;SDS011;5574;48.786;10.120;2024-03-02T11:47:05;3.80;;;3.50;;
11042;SDS011;5574;48.786;10.120;2024-03-02T11:49:38;5.43;;;3.30;;
11042;SDS011;5574;48.786;10.120;2024-03-02T11:52:08;3.47;;;2.87;;
11042;SDS011;5574;48.786;10.120;2024-03-02T11:54:36;2.83;;;2.63;;
11042;SDS011;5574;48.786;10.120;2024-03-02T11:57:05;3.47;;;3.17;;
11042;SDS011;5574;48.786;10.120;2024-03-02T11:59:33;3.40;;;2.90;;
11042;SDS011;5574;48.786;10.120;2024-03-02T12:02:00;3.13;;;2.50;;
11042;SDS011;5574;48.786;10.120;2024-03-02T12:04:27;3.83;;;2.50;;
11042;SDS011;5574;48.786;10.120;2024-03-02T12:06:56;7.30;;;3.23;;
11042;SDS011;5574;48.786;10.120;2024-03-02T12:09:26;2.63;;;2.43;;
11042;SDS011;5574;48.786;10.120;2024-03-02T12:12:03;2.37;;;2.20;;
11042;SDS011;5574;48.786;10.120;2024-03-02T12:14:31;2.60;;;2.40;;
11042;SDS011;5574;48.786;10.120;2024-03-02T12:16:58;2.30;;;2.10;;
11042;SDS011;5574;48.786;10.120;2024-03-02T12:19:23;1.70;;;1.60;;
11042;SDS011;5574;48.786;10.120;2024-03-02T12:21:50;2.60;;;1.50;;
11042;SDS011;5574;48.786;10.120;2024-03-02T12:24:17;1.98;;;1.77;;
11042;SDS011;5574;48.786;10.120;2024-03-02T12:26:45;2.00;;;1.80;;
11042;SDS011;5574;48.786;10.120;2024-03-02T12:29:13;1.87;;;1.77;;
11042;SDS011;5574;48.786;10.120;2024-03-02T12:31:40;1.77;;;1.67;;
11042;SDS011;5574;48.786;10.120;2024-03-02T12:34:08;1.23;;;1.23;;
11042;SDS011;5574;48.786;10.120;2024-03-02T12:36:36;1.83;;;1.20;;
11042;SDS011;5574;48.786;10.120;2024-03-02T12:39:04;1.30;;;1.20;;
11042;SDS011;5574;48.786;10.120;2024-03-02T12:41:30;1.33;;;1.23;;
11042;SDS011;5574;48.786;10.120;2024-03-02T12:43:58;1.80;;;1.10;;
11042;SDS011;5574;48.786;10.120;2024-03-02T12:46:25;1.30;;;1.20;;
11042;SDS011;5574;48.786;10.120;2024-03-02T12:48:52;1.70;;;1.30;;
11042;SDS011;5574;48.786;10.120;2024-03-02T12:51:19;2.27;;;1.30;;
11042;SDS011;5574;48.786;10.120;2024-03-02T12:53:52;1.60;;;1.50;;
11042;SDS011;5574;48.786;10.120;2024-03-02T12:56:19;1.40;;;1.30;;
11042;SDS011;5574;48.786;10.120;2024-03-02T12:58:46;2.50;;;1.70;;
11042;SDS011;5574;48.786;10.120;2024-03-02T13:01:14;1.95;;;1.85;;
11042;SDS011;5574;48.786;10.120;2024-03-02T13:03:44;2.28;;;2.08;;
11042;SDS011;5574;48.786;10.120;2024-03-02T13:06:10;1.53;;;1.43;;
11042;SDS011;5574;48.786;10.120;2024-03-02T13:08:37;1.80;;;1.70;;
11042;SDS011;5574;48.786;10.120;2024-03-02T13:11:05;1.98;;;1.85;;
11042;SDS011;5574;48.786;10.120;2024-03-02T13:13:32;2.08;;;1.70;;
11042;SDS011;5574;48.786;10.120;2024-03-02T13:15:59;2.15;;;1.95;;
11042;SDS011;5574;48.786;10.120;2024-03-02T13:18:29;2.20;;;2.00;;
11042;SDS011;5574;48.786;10.120;2024-03-02T13:20:56;2.30;;;1.70;;
11042;SDS011;5574;48.786;10.120;2024-03-02T13:23:24;1.80;;;1.70;;
11042;SDS011;5574;48.786;10.120;2024-03-02T13:25:50;3.07;;;1.97;;
11042;SDS011;5574;48.786;10.120;2024-03-02T13:28:17;2.00;;;1.90;;
11042;SDS011;5574;48.786;10.120;2024-03-02T13:30:44;2.27;;;2.07;;
11042;SDS011;5574;48.786;10.120;2024-03-02T13:33:10;5.37;;;2.47;;
11042;SDS011;5574;48.786;10.120;2024-03-02T13:35:38;3.17;;;2.83;;
11042;SDS011;5574;48.786;10.120;2024-03-02T13:38:05;2.63;;;2.43;;
11042;SDS011;5574;48.786;10.120;2024-03-02T13:40:32;2.77;;;2.57;;
11042;SDS011;5574;48.786;10.120;2024-03-02T13:43:00;3.20;;;3.00;;
11042;SDS011;5574;48.786;10.120;2024-03-02T13:45:27;3.13;;;2.93;;
11042;SDS011;5574;48.786;10.120;2024-03-02T13:47:54;3.53;;;3.22;;
11042;SDS011;5574;48.786;10.120;2024-03-02T13:50:21;3.67;;;3.37;;
11042;SDS011;5574;48.786;10.120;2024-03-02T13:52:49;3.30;;;3.10;;
11042;SDS011;5574;48.786;10.120;2024-03-02T13:55:15;3.90;;;3.57;;
11042;SDS011;5574;48.786;10.120;2024-03-02T13:57:42;3.27;;;3.07;;
11042;SDS011;5574;48.786;10.120;2024-03-02T14:00:09;3.90;;;3.60;;
11042;SDS011;5574;48.786;10.120;2024-03-02T14:02:37;3.37;;;3.07;;
11042;SDS011;5574;48.786;10.120;2024-03-02T14:05:04;3.97;;;3.50;;
11042;SDS011;5574;48.786;10.120;2024-03-02T14:07:32;4.63;;;3.80;;
11042;SDS011;5574;48.786;10.120;2024-03-02T14:10:00;4.73;;;4.33;;
11042;SDS011;5574;48.786;10.120;2024-03-02T14:12:27;4.60;;;3.47;;
11042;SDS011;5574;48.786;10.120;2024-03-02T14:14:54;3.97;;;3.60;;
11042;SDS011;5574;48.786;10.120;2024-03-02T14:17:23;3.77;;;3.47;;
11042;SDS011;5574;48.786;10.120;2024-03-02T14:19:49;3.73;;;3.37;;
11042;SDS011;5574;48.786;10.120;2024-03-02T14:22:17;4.30;;;3.90;;
11042;SDS011;5574;48.786;10.120;2024-03-02T14:24:43;5.82;;;4.20;;
11042;SDS011;5574;48.786;10.120;2024-03-02T14:27:12;4.03;;;3.63;;
11042;SDS011;5574;48.786;10.120;2024-03-02T14:29:39;4.40;;;4.00;;
11042;SDS011;5574;48.786;10.120;2024-03-02T14:32:06;4.50;;;4.10;;
11042;SDS011;5574;48.786;10.120;2024-03-02T14:34:33;5.27;;;4.80;;
11042;SDS011;5574;48.786;10.120;2024-03-02T14:36:59;5.97;;;5.47;;